Kiana, AK

2:45 PM AKST on February 21, 2017 (GMT -0900)
Wien Memorial | | Change Station
Active Advisory: Winter Storm Watch

Elev 10 ft 66.88 °N, 162.60 °W | Updated 52 minutes ago

Clear
Clear
-12 °F
Feels Like -29 °F
N
8
Wind Variable Wind from East

Today
High -- | Low -- °F
--% Chance of Precip.
Yesterday
High -- | Low -- °F
Precip. -- in
Pressure 30.29 in
Visibility 4.0 miles
Clouds Clear
Windchill -29 °F
Dew Point -35 °F
Humidity 31%
Rainfall 0.00 in
Snow Depth Not available.
9:35 AM 6:34 PM
Waning Crescent, 22% visible
METAR PAOT 212253Z 10007KT 4SM BR CLR M24/M37 A3029 RMK AO2 SLP256 T12441372 $
Pressure 30.29 in
Visibility 4.0 miles
Clouds Clear
Windchill -29 °F
Dew Point -35 °F
Humidity 31%
Rainfall 0.00 in
Snow Depth Not available.
9:35 AM 6:34 PM
Waning Crescent, 22% visible
METAR PAOT 212253Z 10007KT 4SM BR CLR M24/M37 A3029 RMK AO2 SLP256 T12441372 $

Get Your Daily Forecast Email!

Thanks for signing up!

Be on the lookout for a verification email in your inbox.

You'll start receiving the daily forecast at 8 AM.

×

10-Day Weather Forecast

Almanac

Astronomy

Feb. 21, 2017 Rise Set
Actual Time
Civil Twilight
Nautical Twilight
Astronomical Twilight
Moon
Length of Visible Light
Length of Day
Tomorrow will be .
, % of the Moon is Illuminated

Today's Extremes

State Highs State Lows

Community

WunderPhotos

Upload Photos

1,962,540 photos uploaded!

WunderBlog® & News

Nearby

Air Quality

  Air Quality AQ Index Pollutant
Not available.

Snow Depth

Station Depth Elevation

Earthquake Activity

City Distance Mag. Time & Date
Minimum magnitude displayed is 2.5.

Coastal Water Temperatures

Place Temperature

Stations

Nearby Weather Stations

Station Location Temp. Windchill Dew Point Humidity Wind Precip. Elev Updated Type
                   

Watches & Warnings

Winter Storm Watch
Issued: 2:15 PM AKST Feb. 21, 2017 – National Weather Service

... Winter Storm Watch remains in effect from Thursday morning
through late Thursday night...

* snow... with 4 to 8 inches accumulation possible.

* Blowing snow... with possible blizzard conditions.

* Winds... gusting to 40 mph.

* Timing... snow and blowing snow with strong winds are expected
to develop Thursday morning and continue through Thursday
night.

* Impacts... travel and outdoor activities will be difficult.
Blizzard conditions are possible.

Precautionary/preparedness actions...

A Winter Storm Watch means that there is a potential for one or
more significant winter weather hazards.